< < Back
Terminal Aerodrome Forecast


Current Version              Previous Versions:   1  2  3  4  5  6  7  8  9  

Terminal Aerodrome Forecast

380
FTUS44 KOHX 211800 AAA
TAFBNA
TAF AMD
KBNA 211816Z 2118/2218 32010G16KT P6SM FEW060
     FM220000 36005KT P6SM SKC
     FM221400 03008KT P6SM SCT045=

Latest METAR

741
SAUS70 KWBC 220100 RRB
MTRBNA
METAR KBNA 220053Z 02011KT 10SM CLR 15/07 A3008 RMK AO2 SLP186
T01500072


USA.gov is the U.S. government's official web portal to all federal, state and local government web resources and services.